sensor_id;sensor_type;location;lat;lon;timestamp;P1;durP1;ratioP1;P2;durP2;ratioP2
24567;SDS011;12731;52.182;8.716;2024-03-06T00:02:20;42.88;;;30.58;;
24567;SDS011;12731;52.182;8.716;2024-03-06T00:04:46;48.35;;;33.10;;
24567;SDS011;12731;52.182;8.716;2024-03-06T00:07:13;46.15;;;33.10;;
24567;SDS011;12731;52.182;8.716;2024-03-06T00:09:39;46.70;;;34.22;;
24567;SDS011;12731;52.182;8.716;2024-03-06T00:12:06;46.78;;;34.05;;
24567;SDS011;12731;52.182;8.716;2024-03-06T00:14:32;50.33;;;34.05;;
24567;SDS011;12731;52.182;8.716;2024-03-06T00:16:59;52.65;;;33.67;;
24567;SDS011;12731;52.182;8.716;2024-03-06T00:19:26;48.42;;;33.92;;
24567;SDS011;12731;52.182;8.716;2024-03-06T00:21:52;42.72;;;30.65;;
24567;SDS011;12731;52.182;8.716;2024-03-06T00:24:19;42.58;;;32.75;;
24567;SDS011;12731;52.182;8.716;2024-03-06T00:26:45;44.70;;;31.65;;
24567;SDS011;12731;52.182;8.716;2024-03-06T00:29:13;44.97;;;31.55;;
24567;SDS011;12731;52.182;8.716;2024-03-06T00:31:44;48.50;;;32.58;;
24567;SDS011;12731;52.182;8.716;2024-03-06T00:34:11;44.63;;;31.10;;
24567;SDS011;12731;52.182;8.716;2024-03-06T00:36:40;45.40;;;30.75;;
24567;SDS011;12731;52.182;8.716;2024-03-06T00:39:07;42.70;;;30.45;;
24567;SDS011;12731;52.182;8.716;2024-03-06T00:41:34;43.72;;;29.60;;
24567;SDS011;12731;52.182;8.716;2024-03-06T00:44:01;42.65;;;29.67;;
24567;SDS011;12731;52.182;8.716;2024-03-06T00:46:28;39.13;;;29.73;;
24567;SDS011;12731;52.182;8.716;2024-03-06T00:48:55;42.92;;;29.05;;
24567;SDS011;12731;52.182;8.716;2024-03-06T00:51:21;40.92;;;28.50;;
24567;SDS011;12731;52.182;8.716;2024-03-06T00:54:02;40.38;;;28.83;;
24567;SDS011;12731;52.182;8.716;2024-03-06T00:56:30;39.33;;;27.73;;
24567;SDS011;12731;52.182;8.716;2024-03-06T00:58:57;42.22;;;28.88;;
24567;SDS011;12731;52.182;8.716;2024-03-06T01:01:24;38.60;;;28.70;;
24567;SDS011;12731;52.182;8.716;2024-03-06T01:03:50;36.47;;;27.85;;
24567;SDS011;12731;52.182;8.716;2024-03-06T01:06:17;40.22;;;28.52;;
24567;SDS011;12731;52.182;8.716;2024-03-06T01:08:44;39.83;;;27.80;;
24567;SDS011;12731;52.182;8.716;2024-03-06T01:11:11;40.58;;;28.50;;
24567;SDS011;12731;52.182;8.716;2024-03-06T01:13:40;38.42;;;28.00;;
24567;SDS011;12731;52.182;8.716;2024-03-06T01:16:07;39.30;;;28.58;;
24567;SDS011;12731;52.182;8.716;2024-03-06T01:18:33;37.47;;;27.10;;
24567;SDS011;12731;52.182;8.716;2024-03-06T01:21:00;40.00;;;28.25;;
24567;SDS011;12731;52.182;8.716;2024-03-06T01:23:26;38.90;;;28.17;;
24567;SDS011;12731;52.182;8.716;2024-03-06T01:25:53;35.75;;;27.10;;
24567;SDS011;12731;52.182;8.716;2024-03-06T01:28:19;36.88;;;26.63;;
24567;SDS011;12731;52.182;8.716;2024-03-06T01:30:46;37.03;;;25.38;;
24567;SDS011;12731;52.182;8.716;2024-03-06T01:33:12;34.22;;;25.90;;
24567;SDS011;12731;52.182;8.716;2024-03-06T01:35:39;35.08;;;26.60;;
24567;SDS011;12731;52.182;8.716;2024-03-06T01:38:05;36.13;;;24.42;;
24567;SDS011;12731;52.182;8.716;2024-03-06T01:40:32;33.33;;;24.95;;
24567;SDS011;12731;52.182;8.716;2024-03-06T01:42:59;33.05;;;24.08;;
24567;SDS011;12731;52.182;8.716;2024-03-06T01:45:27;34.40;;;24.88;;
24567;SDS011;12731;52.182;8.716;2024-03-06T01:47:53;33.55;;;24.60;;
24567;SDS011;12731;52.182;8.716;2024-03-06T01:50:20;31.45;;;24.33;;
24567;SDS011;12731;52.182;8.716;2024-03-06T01:52:46;33.75;;;24.25;;
24567;SDS011;12731;52.182;8.716;2024-03-06T01:55:14;32.70;;;23.63;;
24567;SDS011;12731;52.182;8.716;2024-03-06T01:57:41;34.88;;;24.35;;
24567;SDS011;12731;52.182;8.716;2024-03-06T02:00:08;32.20;;;23.50;;
24567;SDS011;12731;52.182;8.716;2024-03-06T02:02:42;33.95;;;22.83;;
24567;SDS011;12731;52.182;8.716;2024-03-06T02:05:09;28.70;;;21.23;;
24567;SDS011;12731;52.182;8.716;2024-03-06T02:07:36;33.20;;;22.42;;
24567;SDS011;12731;52.182;8.716;2024-03-06T02:10:04;31.48;;;21.98;;
24567;SDS011;12731;52.182;8.716;2024-03-06T02:12:33;32.05;;;22.33;;
24567;SDS011;12731;52.182;8.716;2024-03-06T02:14:59;31.15;;;22.30;;
24567;SDS011;12731;52.182;8.716;2024-03-06T02:17:26;32.85;;;22.67;;
24567;SDS011;12731;52.182;8.716;2024-03-06T02:19:55;34.25;;;23.45;;
24567;SDS011;12731;52.182;8.716;2024-03-06T02:22:24;33.28;;;23.42;;
24567;SDS011;12731;52.182;8.716;2024-03-06T02:24:50;34.22;;;22.98;;
24567;SDS011;12731;52.182;8.716;2024-03-06T02:27:17;32.70;;;23.88;;
24567;SDS011;12731;52.182;8.716;2024-03-06T02:29:44;34.88;;;24.92;;
24567;SDS011;12731;52.182;8.716;2024-03-06T02:32:12;34.78;;;23.98;;
24567;SDS011;12731;52.182;8.716;2024-03-06T02:34:39;34.50;;;24.63;;
24567;SDS011;12731;52.182;8.716;2024-03-06T02:37:06;35.33;;;25.58;;
24567;SDS011;12731;52.182;8.716;2024-03-06T02:39:33;30.30;;;24.95;;
24567;SDS011;12731;52.182;8.716;2024-03-06T02:42:00;40.78;;;26.08;;
24567;SDS011;12731;52.182;8.716;2024-03-06T02:44:26;34.42;;;25.33;;
24567;SDS011;12731;52.182;8.716;2024-03-06T02:46:53;38.22;;;26.17;;
24567;SDS011;12731;52.182;8.716;2024-03-06T02:49:19;37.92;;;25.83;;
24567;SDS011;12731;52.182;8.716;2024-03-06T02:51:46;36.33;;;25.75;;
24567;SDS011;12731;52.182;8.716;2024-03-06T02:54:12;37.85;;;25.95;;
24567;SDS011;12731;52.182;8.716;2024-03-06T02:56:39;40.13;;;27.70;;
24567;SDS011;12731;52.182;8.716;2024-03-06T02:59:06;36.65;;;27.48;;
24567;SDS011;12731;52.182;8.716;2024-03-06T03:01:33;34.75;;;26.30;;
24567;SDS011;12731;52.182;8.716;2024-03-06T03:04:00;36.55;;;28.02;;
24567;SDS011;12731;52.182;8.716;2024-03-06T03:06:26;39.88;;;27.55;;
24567;SDS011;12731;52.182;8.716;2024-03-06T03:08:53;36.83;;;27.75;;
24567;SDS011;12731;52.182;8.716;2024-03-06T03:11:19;35.80;;;26.17;;
24567;SDS011;12731;52.182;8.716;2024-03-06T03:13:46;38.53;;;26.73;;
24567;SDS011;12731;52.182;8.716;2024-03-06T03:16:16;38.30;;;26.95;;
24567;SDS011;12731;52.182;8.716;2024-03-06T03:18:47;36.28;;;26.88;;
24567;SDS011;12731;52.182;8.716;2024-03-06T03:21:16;36.25;;;25.85;;
24567;SDS011;12731;52.182;8.716;2024-03-06T03:23:43;41.45;;;26.95;;
24567;SDS011;12731;52.182;8.716;2024-03-06T03:26:09;34.53;;;25.27;;
24567;SDS011;12731;52.182;8.716;2024-03-06T03:28:37;37.80;;;27.80;;
24567;SDS011;12731;52.182;8.716;2024-03-06T03:31:07;37.03;;;26.33;;
24567;SDS011;12731;52.182;8.716;2024-03-06T03:33:41;35.42;;;26.30;;
24567;SDS011;12731;52.182;8.716;2024-03-06T03:36:08;38.40;;;27.50;;
24567;SDS011;12731;52.182;8.716;2024-03-06T03:38:35;39.42;;;26.58;;
24567;SDS011;12731;52.182;8.716;2024-03-06T03:41:08;36.30;;;27.05;;
24567;SDS011;12731;52.182;8.716;2024-03-06T03:43:35;36.55;;;26.30;;
24567;SDS011;12731;52.182;8.716;2024-03-06T03:46:02;37.63;;;26.23;;
24567;SDS011;12731;52.182;8.716;2024-03-06T03:48:30;36.17;;;26.27;;
24567;SDS011;12731;52.182;8.716;2024-03-06T03:50:57;37.67;;;27.02;;
24567;SDS011;12731;52.182;8.716;2024-03-06T03:53:23;35.33;;;25.90;;
24567;SDS011;12731;52.182;8.716;2024-03-06T03:55:50;34.78;;;26.80;;
24567;SDS011;12731;52.182;8.716;2024-03-06T03:58:17;34.10;;;26.02;;
24567;SDS011;12731;52.182;8.716;2024-03-06T04:00:44;35.80;;;26.33;;
24567;SDS011;12731;52.182;8.716;2024-03-06T04:03:11;35.20;;;25.27;;
24567;SDS011;12731;52.182;8.716;2024-03-06T04:05:37;33.83;;;25.33;;
24567;SDS011;12731;52.182;8.716;2024-03-06T04:08:04;37.47;;;24.98;;
24567;SDS011;12731;52.182;8.716;2024-03-06T04:10:32;31.92;;;23.25;;
24567;SDS011;12731;52.182;8.716;2024-03-06T04:12:59;35.30;;;24.88;;
24567;SDS011;12731;52.182;8.716;2024-03-06T04:15:26;34.47;;;24.88;;
24567;SDS011;12731;52.182;8.716;2024-03-06T04:17:53;36.33;;;25.60;;
24567;SDS011;12731;52.182;8.716;2024-03-06T04:20:19;34.95;;;24.00;;
24567;SDS011;12731;52.182;8.716;2024-03-06T04:22:46;35.03;;;25.23;;
24567;SDS011;12731;52.182;8.716;2024-03-06T04:25:14;39.67;;;24.65;;
24567;SDS011;12731;52.182;8.716;2024-03-06T04:27:40;30.35;;;23.92;;
24567;SDS011;12731;52.182;8.716;2024-03-06T04:30:07;36.88;;;25.58;;
24567;SDS011;12731;52.182;8.716;2024-03-06T04:32:34;34.58;;;24.10;;
24567;SDS011;12731;52.182;8.716;2024-03-06T04:35:00;33.17;;;24.40;;
24567;SDS011;12731;52.182;8.716;2024-03-06T04:37:27;34.08;;;24.55;;
24567;SDS011;12731;52.182;8.716;2024-03-06T04:39:55;38.45;;;24.88;;
24567;SDS011;12731;52.182;8.716;2024-03-06T04:42:22;40.70;;;25.23;;
24567;SDS011;12731;52.182;8.716;2024-03-06T04:44:48;39.00;;;25.45;;
24567;SDS011;12731;52.182;8.716;2024-03-06T04:47:15;36.88;;;24.88;;
24567;SDS011;12731;52.182;8.716;2024-03-06T04:49:42;36.42;;;25.55;;
24567;SDS011;12731;52.182;8.716;2024-03-06T04:52:09;33.40;;;23.63;;
24567;SDS011;12731;52.182;8.716;2024-03-06T04:54:35;37.17;;;25.55;;
24567;SDS011;12731;52.182;8.716;2024-03-06T04:57:02;42.25;;;27.20;;
24567;SDS011;12731;52.182;8.716;2024-03-06T04:59:29;37.15;;;25.80;;
24567;SDS011;12731;52.182;8.716;2024-03-06T05:01:55;38.22;;;26.65;;
24567;SDS011;12731;52.182;8.716;2024-03-06T05:04:22;35.88;;;26.38;;
24567;SDS011;12731;52.182;8.716;2024-03-06T05:07:06;34.65;;;26.00;;
24567;SDS011;12731;52.182;8.716;2024-03-06T05:09:49;38.03;;;24.90;;
24567;SDS011;12731;52.182;8.716;2024-03-06T05:12:34;35.55;;;24.10;;
24567;SDS011;12731;52.182;8.716;2024-03-06T05:15:17;33.13;;;23.48;;
24567;SDS011;12731;52.182;8.716;2024-03-06T05:18:03;31.52;;;23.23;;
24567;SDS011;12731;52.182;8.716;2024-03-06T05:20:47;33.80;;;23.42;;
24567;SDS011;12731;52.182;8.716;2024-03-06T05:23:31;37.92;;;25.58;;
24567;SDS011;12731;52.182;8.716;2024-03-06T05:26:15;38.97;;;26.05;;
24567;SDS011;12731;52.182;8.716;2024-03-06T05:28:59;38.92;;;26.63;;
24567;SDS011;12731;52.182;8.716;2024-03-06T05:31:43;38.88;;;26.25;;
24567;SDS011;12731;52.182;8.716;2024-03-06T05:34:27;35.90;;;24.02;;
24567;SDS011;12731;52.182;8.716;2024-03-06T05:37:11;36.80;;;26.48;;
24567;SDS011;12731;52.182;8.716;2024-03-06T05:39:56;39.63;;;27.15;;
24567;SDS011;12731;52.182;8.716;2024-03-06T05:42:40;38.15;;;26.30;;
24567;SDS011;12731;52.182;8.716;2024-03-06T05:45:26;42.40;;;27.52;;
24567;SDS011;12731;52.182;8.716;2024-03-06T05:48:10;39.95;;;26.60;;
24567;SDS011;12731;52.182;8.716;2024-03-06T05:50:54;41.67;;;26.40;;
24567;SDS011;12731;52.182;8.716;2024-03-06T05:53:38;40.05;;;26.83;;
24567;SDS011;12731;52.182;8.716;2024-03-06T05:56:24;38.75;;;27.02;;
24567;SDS011;12731;52.182;8.716;2024-03-06T05:59:08;40.25;;;27.75;;
24567;SDS011;12731;52.182;8.716;2024-03-06T06:01:34;41.13;;;26.33;;
24567;SDS011;12731;52.182;8.716;2024-03-06T06:04:01;39.38;;;27.27;;
24567;SDS011;12731;52.182;8.716;2024-03-06T06:06:33;37.92;;;25.23;;
24567;SDS011;12731;52.182;8.716;2024-03-06T06:08:59;36.03;;;26.65;;
24567;SDS011;12731;52.182;8.716;2024-03-06T06:11:26;41.95;;;27.48;;
24567;SDS011;12731;52.182;8.716;2024-03-06T06:13:52;40.33;;;26.52;;
24567;SDS011;12731;52.182;8.716;2024-03-06T06:16:19;41.35;;;26.83;;
24567;SDS011;12731;52.182;8.716;2024-03-06T06:18:45;40.70;;;28.08;;
24567;SDS011;12731;52.182;8.716;2024-03-06T06:21:12;39.03;;;26.55;;
24567;SDS011;12731;52.182;8.716;2024-03-06T06:23:39;37.30;;;26.92;;
24567;SDS011;12731;52.182;8.716;2024-03-06T06:26:05;44.30;;;28.40;;
24567;SDS011;12731;52.182;8.716;2024-03-06T06:28:32;42.97;;;27.42;;
24567;SDS011;12731;52.182;8.716;2024-03-06T06:30:58;38.65;;;27.65;;
24567;SDS011;12731;52.182;8.716;2024-03-06T06:33:25;42.28;;;27.50;;
24567;SDS011;12731;52.182;8.716;2024-03-06T06:35:51;39.92;;;26.80;;
24567;SDS011;12731;52.182;8.716;2024-03-06T06:38:18;39.78;;;26.27;;
24567;SDS011;12731;52.182;8.716;2024-03-06T06:40:44;44.22;;;27.15;;
24567;SDS011;12731;52.182;8.716;2024-03-06T06:43:11;36.67;;;25.83;;
24567;SDS011;12731;52.182;8.716;2024-03-06T06:45:37;42.00;;;27.27;;
24567;SDS011;12731;52.182;8.716;2024-03-06T06:48:04;46.25;;;27.50;;
24567;SDS011;12731;52.182;8.716;2024-03-06T06:50:31;47.33;;;29.95;;
24567;SDS011;12731;52.182;8.716;2024-03-06T06:52:59;49.35;;;29.38;;
24567;SDS011;12731;52.182;8.716;2024-03-06T06:55:26;46.80;;;29.60;;
24567;SDS011;12731;52.182;8.716;2024-03-06T06:57:53;44.00;;;28.75;;
24567;SDS011;12731;52.182;8.716;2024-03-06T07:00:20;44.35;;;28.67;;
24567;SDS011;12731;52.182;8.716;2024-03-06T07:02:49;46.75;;;29.70;;
24567;SDS011;12731;52.182;8.716;2024-03-06T07:05:16;44.45;;;29.55;;
24567;SDS011;12731;52.182;8.716;2024-03-06T07:07:42;46.92;;;30.08;;
24567;SDS011;12731;52.182;8.716;2024-03-06T07:10:09;52.78;;;31.77;;
24567;SDS011;12731;52.182;8.716;2024-03-06T07:12:36;50.78;;;30.15;;
24567;SDS011;12731;52.182;8.716;2024-03-06T07:15:03;47.17;;;29.00;;
24567;SDS011;12731;52.182;8.716;2024-03-06T07:17:30;49.17;;;30.63;;
24567;SDS011;12731;52.182;8.716;2024-03-06T07:19:57;44.97;;;29.00;;
24567;SDS011;12731;52.182;8.716;2024-03-06T07:22:23;42.55;;;28.17;;
24567;SDS011;12731;52.182;8.716;2024-03-06T07:24:50;39.42;;;27.25;;
24567;SDS011;12731;52.182;8.716;2024-03-06T07:27:17;42.75;;;28.52;;
24567;SDS011;12731;52.182;8.716;2024-03-06T07:29:45;40.88;;;26.75;;
24567;SDS011;12731;52.182;8.716;2024-03-06T07:32:12;41.22;;;27.42;;
24567;SDS011;12731;52.182;8.716;2024-03-06T07:34:38;42.13;;;27.80;;
24567;SDS011;12731;52.182;8.716;2024-03-06T07:37:04;35.03;;;25.60;;
24567;SDS011;12731;52.182;8.716;2024-03-06T07:39:31;41.17;;;27.00;;
24567;SDS011;12731;52.182;8.716;2024-03-06T07:41:58;38.95;;;27.88;;
24567;SDS011;12731;52.182;8.716;2024-03-06T07:44:25;38.53;;;27.30;;
24567;SDS011;12731;52.182;8.716;2024-03-06T07:46:52;38.70;;;26.95;;
24567;SDS011;12731;52.182;8.716;2024-03-06T07:49:20;39.38;;;26.77;;
24567;SDS011;12731;52.182;8.716;2024-03-06T07:51:50;37.75;;;26.08;;
24567;SDS011;12731;52.182;8.716;2024-03-06T07:54:16;37.05;;;24.63;;
24567;SDS011;12731;52.182;8.716;2024-03-06T07:56:43;43.17;;;29.27;;
24567;SDS011;12731;52.182;8.716;2024-03-06T07:59:10;41.80;;;27.30;;
24567;SDS011;12731;52.182;8.716;2024-03-06T08:01:39;44.15;;;29.15;;
24567;SDS011;12731;52.182;8.716;2024-03-06T08:04:06;40.70;;;27.45;;
24567;SDS011;12731;52.182;8.716;2024-03-06T08:06:32;43.35;;;28.02;;
24567;SDS011;12731;52.182;8.716;2024-03-06T08:08:59;37.75;;;26.80;;
24567;SDS011;12731;52.182;8.716;2024-03-06T08:11:28;38.63;;;25.27;;
24567;SDS011;12731;52.182;8.716;2024-03-06T08:13:59;39.90;;;27.52;;
24567;SDS011;12731;52.182;8.716;2024-03-06T08:16:26;39.92;;;27.40;;
24567;SDS011;12731;52.182;8.716;2024-03-06T08:18:52;45.85;;;28.08;;
24567;SDS011;12731;52.182;8.716;2024-03-06T08:21:19;39.38;;;27.33;;
24567;SDS011;12731;52.182;8.716;2024-03-06T08:23:49;42.10;;;27.38;;
24567;SDS011;12731;52.182;8.716;2024-03-06T08:26:16;41.75;;;27.60;;
24567;SDS011;12731;52.182;8.716;2024-03-06T08:28:42;40.08;;;26.15;;
24567;SDS011;12731;52.182;8.716;2024-03-06T08:31:09;39.33;;;27.40;;
24567;SDS011;12731;52.182;8.716;2024-03-06T08:33:35;42.42;;;28.27;;
24567;SDS011;12731;52.182;8.716;2024-03-06T08:36:02;46.35;;;29.55;;
24567;SDS011;12731;52.182;8.716;2024-03-06T08:38:29;43.13;;;28.80;;
24567;SDS011;12731;52.182;8.716;2024-03-06T08:40:56;49.60;;;29.20;;
24567;SDS011;12731;52.182;8.716;2024-03-06T08:43:22;45.15;;;28.92;;
24567;SDS011;12731;52.182;8.716;2024-03-06T08:45:48;43.05;;;29.38;;
24567;SDS011;12731;52.182;8.716;2024-03-06T08:48:15;43.88;;;29.23;;
24567;SDS011;12731;52.182;8.716;2024-03-06T08:50:42;44.13;;;28.58;;
24567;SDS011;12731;52.182;8.716;2024-03-06T08:53:08;41.35;;;27.58;;
24567;SDS011;12731;52.182;8.716;2024-03-06T08:55:35;41.10;;;28.48;;
24567;SDS011;12731;52.182;8.716;2024-03-06T08:58:02;48.53;;;30.02;;
24567;SDS011;12731;52.182;8.716;2024-03-06T09:00:29;44.33;;;29.25;;
24567;SDS011;12731;52.182;8.716;2024-03-06T09:02:55;45.08;;;28.65;;
24567;SDS011;12731;52.182;8.716;2024-03-06T09:05:22;44.60;;;28.92;;
24567;SDS011;12731;52.182;8.716;2024-03-06T09:07:48;48.38;;;29.35;;
24567;SDS011;12731;52.182;8.716;2024-03-06T09:10:15;45.20;;;28.63;;
24567;SDS011;12731;52.182;8.716;2024-03-06T09:12:41;45.85;;;28.73;;
24567;SDS011;12731;52.182;8.716;2024-03-06T09:15:08;40.50;;;27.20;;
24567;SDS011;12731;52.182;8.716;2024-03-06T09:17:35;40.90;;;27.77;;
24567;SDS011;12731;52.182;8.716;2024-03-06T09:20:02;48.35;;;30.02;;
24567;SDS011;12731;52.182;8.716;2024-03-06T09:22:37;43.13;;;28.23;;
24567;SDS011;12731;52.182;8.716;2024-03-06T09:25:05;46.28;;;28.77;;
24567;SDS011;12731;52.182;8.716;2024-03-06T09:27:32;49.13;;;29.98;;
24567;SDS011;12731;52.182;8.716;2024-03-06T09:29:59;48.72;;;29.77;;
24567;SDS011;12731;52.182;8.716;2024-03-06T09:32:26;48.45;;;29.70;;
24567;SDS011;12731;52.182;8.716;2024-03-06T09:34:53;46.38;;;29.40;;
24567;SDS011;12731;52.182;8.716;2024-03-06T09:37:19;48.97;;;30.85;;
24567;SDS011;12731;52.182;8.716;2024-03-06T09:39:46;50.47;;;31.13;;
24567;SDS011;12731;52.182;8.716;2024-03-06T09:42:13;45.00;;;29.02;;
24567;SDS011;12731;52.182;8.716;2024-03-06T09:44:40;50.53;;;30.83;;
24567;SDS011;12731;52.182;8.716;2024-03-06T09:47:07;53.03;;;32.28;;
24567;SDS011;12731;52.182;8.716;2024-03-06T09:49:39;50.47;;;30.83;;
24567;SDS011;12731;52.182;8.716;2024-03-06T09:52:06;51.08;;;30.83;;
24567;SDS011;12731;52.182;8.716;2024-03-06T09:54:32;55.28;;;32.90;;
24567;SDS011;12731;52.182;8.716;2024-03-06T09:56:59;58.22;;;33.50;;
24567;SDS011;12731;52.182;8.716;2024-03-06T09:59:26;54.17;;;32.08;;
24567;SDS011;12731;52.182;8.716;2024-03-06T10:01:54;55.53;;;32.03;;
24567;SDS011;12731;52.182;8.716;2024-03-06T10:04:22;63.22;;;36.15;;
24567;SDS011;12731;52.182;8.716;2024-03-06T10:06:54;55.08;;;32.78;;
24567;SDS011;12731;52.182;8.716;2024-03-06T10:09:25;57.63;;;33.08;;
24567;SDS011;12731;52.182;8.716;2024-03-06T10:11:52;54.95;;;31.38;;
24567;SDS011;12731;52.182;8.716;2024-03-06T10:14:20;49.28;;;31.45;;
24567;SDS011;12731;52.182;8.716;2024-03-06T10:16:53;52.80;;;31.70;;
24567;SDS011;12731;52.182;8.716;2024-03-06T10:19:22;55.72;;;32.70;;
24567;SDS011;12731;52.182;8.716;2024-03-06T10:21:50;58.60;;;34.50;;
24567;SDS011;12731;52.182;8.716;2024-03-06T10:24:20;54.72;;;33.45;;
24567;SDS011;12731;52.182;8.716;2024-03-06T10:26:50;54.00;;;32.75;;
24567;SDS011;12731;52.182;8.716;2024-03-06T10:29:17;50.55;;;30.90;;
24567;SDS011;12731;52.182;8.716;2024-03-06T10:32:03;49.50;;;32.15;;
24567;SDS011;12731;52.182;8.716;2024-03-06T10:34:29;48.45;;;30.83;;
24567;SDS011;12731;52.182;8.716;2024-03-06T10:36:58;50.97;;;31.63;;
24567;SDS011;12731;52.182;8.716;2024-03-06T10:39:25;45.35;;;29.77;;
24567;SDS011;12731;52.182;8.716;2024-03-06T10:41:52;47.00;;;31.23;;
24567;SDS011;12731;52.182;8.716;2024-03-06T10:44:21;44.70;;;30.17;;
24567;SDS011;12731;52.182;8.716;2024-03-06T10:46:51;46.22;;;29.08;;
24567;SDS011;12731;52.182;8.716;2024-03-06T10:49:27;45.03;;;29.25;;
24567;SDS011;12731;52.182;8.716;2024-03-06T10:52:03;44.72;;;29.35;;
24567;SDS011;12731;52.182;8.716;2024-03-06T10:54:33;46.63;;;29.52;;
24567;SDS011;12731;52.182;8.716;2024-03-06T10:57:05;46.85;;;30.38;;
24567;SDS011;12731;52.182;8.716;2024-03-06T10:59:32;42.78;;;28.42;;
24567;SDS011;12731;52.182;8.716;2024-03-06T11:02:01;47.30;;;30.50;;
24567;SDS011;12731;52.182;8.716;2024-03-06T11:04:28;46.22;;;29.73;;
24567;SDS011;12731;52.182;8.716;2024-03-06T11:07:01;45.47;;;28.83;;
24567;SDS011;12731;52.182;8.716;2024-03-06T11:09:35;48.50;;;29.83;;
24567;SDS011;12731;52.182;8.716;2024-03-06T11:12:02;45.65;;;29.08;;
24567;SDS011;12731;52.182;8.716;2024-03-06T11:14:32;41.95;;;27.77;;
24567;SDS011;12731;52.182;8.716;2024-03-06T11:17:09;40.53;;;27.23;;
24567;SDS011;12731;52.182;8.716;2024-03-06T11:28:16;41.60;;;27.67;;
24567;SDS011;12731;52.182;8.716;2024-03-06T11:33:16;43.30;;;27.83;;
24567;SDS011;12731;52.182;8.716;2024-03-06T11:41:46;42.55;;;28.35;;
24567;SDS011;12731;52.182;8.716;2024-03-06T11:44:17;41.22;;;28.65;;
24567;SDS011;12731;52.182;8.716;2024-03-06T11:46:48;41.70;;;26.98;;
24567;SDS011;12731;52.182;8.716;2024-03-06T11:49:25;40.35;;;28.33;;
24567;SDS011;12731;52.182;8.716;2024-03-06T11:51:55;45.03;;;28.45;;
24567;SDS011;12731;52.182;8.716;2024-03-06T11:54:24;39.20;;;28.13;;
24567;SDS011;12731;52.182;8.716;2024-03-06T11:56:52;40.67;;;27.77;;
24567;SDS011;12731;52.182;8.716;2024-03-06T11:59:23;40.47;;;27.33;;
24567;SDS011;12731;52.182;8.716;2024-03-06T12:01:51;39.33;;;26.92;;
24567;SDS011;12731;52.182;8.716;2024-03-06T12:04:19;36.85;;;27.30;;
24567;SDS011;12731;52.182;8.716;2024-03-06T12:06:46;39.20;;;27.52;;
24567;SDS011;12731;52.182;8.716;2024-03-06T12:09:14;37.45;;;25.58;;
24567;SDS011;12731;52.182;8.716;2024-03-06T12:11:41;35.33;;;25.27;;
24567;SDS011;12731;52.182;8.716;2024-03-06T12:14:14;44.75;;;28.58;;
24567;SDS011;12731;52.182;8.716;2024-03-06T12:16:43;38.67;;;27.38;;
24567;SDS011;12731;52.182;8.716;2024-03-06T12:19:11;40.00;;;27.30;;
24567;SDS011;12731;52.182;8.716;2024-03-06T12:21:37;42.65;;;28.73;;
24567;SDS011;12731;52.182;8.716;2024-03-06T12:24:05;41.50;;;27.42;;
24567;SDS011;12731;52.182;8.716;2024-03-06T12:26:36;38.10;;;26.95;;
24567;SDS011;12731;52.182;8.716;2024-03-06T12:29:03;40.10;;;26.25;;
24567;SDS011;12731;52.182;8.716;2024-03-06T12:31:32;38.35;;;26.65;;
24567;SDS011;12731;52.182;8.716;2024-03-06T12:34:00;36.72;;;25.63;;
24567;SDS011;12731;52.182;8.716;2024-03-06T12:36:30;38.88;;;27.35;;
24567;SDS011;12731;52.182;8.716;2024-03-06T12:39:01;38.25;;;26.58;;
24567;SDS011;12731;52.182;8.716;2024-03-06T12:41:28;39.28;;;25.77;;
24567;SDS011;12731;52.182;8.716;2024-03-06T12:43:56;36.15;;;25.73;;
24567;SDS011;12731;52.182;8.716;2024-03-06T12:46:23;35.35;;;25.60;;
24567;SDS011;12731;52.182;8.716;2024-03-06T12:48:50;41.53;;;27.75;;
24567;SDS011;12731;52.182;8.716;2024-03-06T12:51:17;41.03;;;25.98;;
24567;SDS011;12731;52.182;8.716;2024-03-06T12:53:43;34.85;;;25.08;;
24567;SDS011;12731;52.182;8.716;2024-03-06T12:56:10;36.92;;;25.45;;
24567;SDS011;12731;52.182;8.716;2024-03-06T12:58:37;40.38;;;28.35;;
24567;SDS011;12731;52.182;8.716;2024-03-06T13:01:03;36.95;;;26.33;;
24567;SDS011;12731;52.182;8.716;2024-03-06T13:03:31;37.47;;;26.63;;
24567;SDS011;12731;52.182;8.716;2024-03-06T13:05:58;38.33;;;25.10;;
24567;SDS011;12731;52.182;8.716;2024-03-06T13:08:25;33.95;;;25.25;;
24567;SDS011;12731;52.182;8.716;2024-03-06T13:10:52;34.28;;;24.83;;
24567;SDS011;12731;52.182;8.716;2024-03-06T13:13:18;37.70;;;26.23;;
24567;SDS011;12731;52.182;8.716;2024-03-06T13:15:45;38.65;;;26.88;;
24567;SDS011;12731;52.182;8.716;2024-03-06T13:18:14;40.05;;;27.23;;
24567;SDS011;12731;52.182;8.716;2024-03-06T13:20:42;38.45;;;27.10;;
24567;SDS011;12731;52.182;8.716;2024-03-06T13:23:08;43.92;;;27.05;;
24567;SDS011;12731;52.182;8.716;2024-03-06T13:25:35;39.63;;;27.02;;
24567;SDS011;12731;52.182;8.716;2024-03-06T13:28:02;37.38;;;26.30;;
24567;SDS011;12731;52.182;8.716;2024-03-06T13:30:29;35.92;;;25.67;;
24567;SDS011;12731;52.182;8.716;2024-03-06T13:32:56;35.53;;;25.65;;
24567;SDS011;12731;52.182;8.716;2024-03-06T13:35:23;35.03;;;25.55;;
24567;SDS011;12731;52.182;8.716;2024-03-06T13:37:49;34.50;;;25.52;;
24567;SDS011;12731;52.182;8.716;2024-03-06T13:40:16;37.70;;;25.60;;
24567;SDS011;12731;52.182;8.716;2024-03-06T13:42:43;35.90;;;25.27;;
24567;SDS011;12731;52.182;8.716;2024-03-06T13:45:09;34.55;;;24.35;;
24567;SDS011;12731;52.182;8.716;2024-03-06T13:47:41;37.35;;;25.95;;
24567;SDS011;12731;52.182;8.716;2024-03-06T13:50:12;36.15;;;25.08;;
24567;SDS011;12731;52.182;8.716;2024-03-06T13:52:40;37.58;;;24.25;;
24567;SDS011;12731;52.182;8.716;2024-03-06T13:55:07;33.90;;;24.10;;
24567;SDS011;12731;52.182;8.716;2024-03-06T13:57:35;35.10;;;24.67;;
24567;SDS011;12731;52.182;8.716;2024-03-06T14:00:02;35.78;;;25.52;;
24567;SDS011;12731;52.182;8.716;2024-03-06T14:02:31;34.20;;;24.85;;
24567;SDS011;12731;52.182;8.716;2024-03-06T14:04:58;37.30;;;26.33;;
24567;SDS011;12731;52.182;8.716;2024-03-06T14:07:25;36.10;;;24.92;;
24567;SDS011;12731;52.182;8.716;2024-03-06T14:09:52;37.95;;;25.48;;
24567;SDS011;12731;52.182;8.716;2024-03-06T14:12:19;36.10;;;27.05;;
24567;SDS011;12731;52.182;8.716;2024-03-06T14:14:45;36.90;;;25.83;;
24567;SDS011;12731;52.182;8.716;2024-03-06T14:17:12;42.25;;;25.85;;
24567;SDS011;12731;52.182;8.716;2024-03-06T14:19:39;39.50;;;26.13;;
24567;SDS011;12731;52.182;8.716;2024-03-06T14:22:08;38.00;;;26.25;;
24567;SDS011;12731;52.182;8.716;2024-03-06T14:24:35;36.67;;;26.98;;
24567;SDS011;12731;52.182;8.716;2024-03-06T14:27:02;34.67;;;25.92;;
24567;SDS011;12731;52.182;8.716;2024-03-06T14:29:29;35.50;;;25.60;;
24567;SDS011;12731;52.182;8.716;2024-03-06T14:31:56;34.05;;;25.52;;
24567;SDS011;12731;52.182;8.716;2024-03-06T14:34:22;35.60;;;26.48;;
24567;SDS011;12731;52.182;8.716;2024-03-06T14:36:50;35.97;;;25.60;;
24567;SDS011;12731;52.182;8.716;2024-03-06T14:39:20;36.45;;;25.88;;
24567;SDS011;12731;52.182;8.716;2024-03-06T14:41:51;35.35;;;23.63;;
24567;SDS011;12731;52.182;8.716;2024-03-06T14:44:19;33.42;;;24.98;;
24567;SDS011;12731;52.182;8.716;2024-03-06T14:46:46;30.25;;;24.17;;